Time;durP1;ratioP1;P1;durP2;ratioP2;P2;SDS_P1;SDS_P2;PMS_P1;PMS_P2;Temp;Humidity;BMP_temperature;BMP_pressure;BME280_temperature;BME280_humidity;BME280_pressure;Samples;Min_cycle;Max_cycle;Signal;HPM_P1;HPM_P2
2022/03/09 00:00:18;;;;;;;17.13;9.87;;;5.50;99.90;;;;;;5072595;28;20606;-75
2022/03/09 00:02:44;;;;;;;17.10;8.97;;;5.50;99.90;;;;;;5054737;28;20290;-75
2022/03/09 00:05:10;;;;;;;16.03;9.03;;;5.50;99.90;;;;;;5069549;28;20188;-75
2022/03/09 00:07:35;;;;;;;15.57;8.83;;;5.40;99.90;;;;;;5071466;28;20296;-75
2022/03/09 00:10:02;;;;;;;16.90;9.03;;;5.40;99.90;;;;;;5072019;28;20209;-76
2022/03/09 00:12:28;;;;;;;14.33;8.70;;;5.30;99.90;;;;;;5072604;28;20588;-75
2022/03/09 00:14:53;;;;;;;13.13;8.33;;;5.30;99.90;;;;;;5072553;28;20217;-75
2022/03/09 00:17:19;;;;;;;12.77;8.03;;;5.30;99.90;;;;;;5072488;28;20185;-74
2022/03/09 00:19:44;;;;;;;13.67;8.13;;;5.30;99.90;;;;;;5053276;28;20209;-75
2022/03/09 00:22:10;;;;;;;13.73;8.13;;;5.30;99.90;;;;;;5072211;28;20215;-74
2022/03/09 00:24:35;;;;;;;15.67;8.67;;;5.30;99.90;;;;;;5072282;28;20210;-74
2022/03/09 00:27:01;;;;;;;12.17;8.40;;;5.20;99.90;;;;;;5072435;28;20240;-74
2022/03/09 00:29:27;;;;;;;13.87;8.57;;;5.20;99.90;;;;;;5053714;28;20239;-75
2022/03/09 00:31:53;;;;;;;13.13;7.97;;;5.20;99.90;;;;;;5053782;28;20196;-74
2022/03/09 00:34:18;;;;;;;15.90;9.10;;;5.20;99.90;;;;;;5054298;28;20694;-74
2022/03/09 00:36:44;;;;;;;19.47;9.10;;;5.20;99.90;;;;;;5066618;28;20599;-75
2022/03/09 00:39:09;;;;;;;13.70;8.60;;;5.10;99.90;;;;;;5053451;28;20304;-75
2022/03/09 00:41:35;;;;;;;16.13;8.63;;;5.10;99.90;;;;;;5071791;28;20222;-74
2022/03/09 00:44:01;;;;;;;17.53;8.83;;;5.10;99.90;;;;;;5073098;28;20184;-77
2022/03/09 00:46:26;;;;;;;16.07;8.60;;;5.00;99.90;;;;;;5071767;28;20720;-74
2022/03/09 00:48:52;;;;;;;13.33;8.40;;;5.00;99.90;;;;;;5071176;28;20196;-75
2022/03/09 00:51:17;;;;;;;18.10;9.73;;;5.00;99.90;;;;;;5071948;28;20212;-75
2022/03/09 00:53:43;;;;;;;18.37;9.63;;;5.00;99.90;;;;;;5071885;28;20205;-75
2022/03/09 00:56:08;;;;;;;16.83;9.57;;;5.00;99.90;;;;;;5072325;28;20543;-75
2022/03/09 00:58:34;;;;;;;16.87;9.73;;;5.00;99.90;;;;;;5071103;28;20213;-75
2022/03/09 01:00:59;;;;;;;16.77;9.53;;;5.00;99.90;;;;;;5072218;28;20205;-74
2022/03/09 01:03:25;;;;;;;20.33;11.37;;;4.90;99.90;;;;;;5073981;28;20262;-74
2022/03/09 01:05:50;;;;;;;15.13;9.07;;;4.90;99.90;;;;;;5049938;28;20229;-75
2022/03/09 01:08:16;;;;;;;17.73;10.03;;;4.90;99.90;;;;;;5071141;28;20574;-74
2022/03/09 01:10:41;;;;;;;16.27;10.03;;;4.90;99.90;;;;;;5053748;28;20197;-74
2022/03/09 01:13:06;;;;;;;20.60;11.37;;;4.80;99.90;;;;;;5053809;28;20231;-74
2022/03/09 01:15:33;;;;;;;18.63;10.43;;;4.80;99.90;;;;;;5053305;28;20204;-75
2022/03/09 01:17:58;;;;;;;19.20;10.53;;;4.80;99.90;;;;;;5070585;28;20314;-74
2022/03/09 01:20:24;;;;;;;21.83;10.70;;;4.80;99.90;;;;;;5053254;28;20745;-76
2022/03/09 01:22:49;;;;;;;18.23;10.40;;;4.80;99.90;;;;;;5072045;28;20190;-74
2022/03/09 01:25:15;;;;;;;17.10;10.03;;;4.70;99.90;;;;;;5053284;28;20220;-75
2022/03/09 01:27:41;;;;;;;19.50;10.90;;;4.70;99.90;;;;;;5070781;28;20218;-74
2022/03/09 01:30:07;;;;;;;19.20;10.80;;;4.70;99.90;;;;;;5070694;28;20305;-75
2022/03/09 01:32:33;;;;;;;20.43;12.13;;;4.60;99.90;;;;;;5052853;28;20202;-75
2022/03/09 01:34:58;;;;;;;22.33;11.53;;;4.60;99.90;;;;;;5069253;28;20710;-75
2022/03/09 01:37:24;;;;;;;20.50;12.40;;;4.60;99.90;;;;;;5067978;28;20252;-74
2022/03/09 01:39:49;;;;;;;25.20;12.83;;;4.60;99.90;;;;;;5070202;28;20212;-75
2022/03/09 01:42:15;;;;;;;17.87;11.53;;;4.60;99.90;;;;;;5052756;28;20208;-74
2022/03/09 01:44:40;;;;;;;19.30;11.63;;;4.50;99.90;;;;;;5070784;28;20236;-75
2022/03/09 01:47:06;;;;;;;19.60;12.30;;;4.50;99.90;;;;;;5071295;28;20179;-75
2022/03/09 01:49:32;;;;;;;20.27;10.87;;;4.50;99.90;;;;;;5051957;28;20211;-74
2022/03/09 01:52:00;;;;;;;20.30;11.43;;;4.50;99.90;;;;;;5052975;28;20295;-74
2022/03/09 01:54:27;;;;;;;21.10;12.43;;;4.50;99.90;;;;;;5053184;28;20227;-74
2022/03/09 01:56:53;;;;;;;21.30;12.77;;;4.50;99.90;;;;;;5071205;28;20206;-76
2022/03/09 01:59:18;;;;;;;18.37;11.00;;;4.50;99.90;;;;;;5052380;28;20204;-74
2022/03/09 02:01:45;;;;;;;20.50;12.20;;;4.50;99.90;;;;;;5071626;28;20205;-75
2022/03/09 02:04:11;;;;;;;21.80;12.37;;;4.40;99.90;;;;;;5053356;28;20207;-74
2022/03/09 02:06:38;;;;;;;23.40;12.90;;;4.40;99.90;;;;;;5064855;28;20731;-75
2022/03/09 02:11:50;;;;;;;22.47;13.37;;;4.40;99.90;;;;;;5070574;28;20218;-75
2022/03/09 02:14:33;;;;;;;21.27;12.40;;;4.40;99.90;;;;;;5070509;28;20185;-74
2022/03/09 02:17:02;;;;;;;25.57;13.43;;;4.40;99.90;;;;;;5058218;28;20190;-74
2022/03/09 02:19:28;;;;;;;22.37;12.40;;;4.40;99.90;;;;;;5069463;28;20559;-75
2022/03/09 02:22:20;;;;;;;22.07;13.03;;;4.40;99.90;;;;;;5070493;28;20210;-74
2022/03/09 02:24:50;;;;;;;20.03;12.27;;;4.30;99.90;;;;;;5032080;28;20206;-75
2022/03/09 02:27:16;;;;;;;20.93;12.20;;;4.30;99.90;;;;;;5070506;28;20561;-74
2022/03/09 02:29:42;;;;;;;22.90;12.20;;;4.30;99.90;;;;;;5051598;28;20219;-74
2022/03/09 02:32:08;;;;;;;22.53;12.77;;;4.20;99.90;;;;;;5070807;28;20584;-75
2022/03/09 02:34:34;;;;;;;24.83;12.50;;;4.20;99.90;;;;;;5070084;28;20235;-74
2022/03/09 02:36:59;;;;;;;20.13;11.90;;;4.20;99.90;;;;;;5064714;28;20213;-74
2022/03/09 02:39:25;;;;;;;22.33;13.77;;;4.20;99.90;;;;;;5051376;28;20223;-74
2022/03/09 02:41:51;;;;;;;24.07;14.17;;;4.20;99.90;;;;;;5069834;28;20213;-74
2022/03/09 02:44:17;;;;;;;24.57;14.60;;;4.20;99.90;;;;;;5072532;28;20183;-75
2022/03/09 02:46:42;;;;;;;22.80;13.10;;;4.10;99.90;;;;;;5056760;28;20178;-75
2022/03/09 02:49:08;;;;;;;25.30;14.33;;;4.10;99.90;;;;;;5073631;28;20214;-74
2022/03/09 02:51:33;;;;;;;28.20;13.70;;;4.10;99.90;;;;;;5073968;28;20216;-75
2022/03/09 02:53:59;;;;;;;23.93;13.50;;;4.10;99.90;;;;;;5074331;28;20725;-74
2022/03/09 02:56:24;;;;;;;23.80;13.03;;;4.00;99.90;;;;;;5055988;28;20683;-75
2022/03/09 02:58:50;;;;;;;20.97;12.17;;;4.10;99.90;;;;;;5073963;28;20201;-74
2022/03/09 03:01:16;;;;;;;20.10;11.17;;;4.10;99.90;;;;;;5055808;28;20213;-75
2022/03/09 03:03:42;;;;;;;19.47;11.43;;;4.00;99.90;;;;;;5074009;28;20790;-73
2022/03/09 03:06:09;;;;;;;19.27;11.50;;;4.00;99.90;;;;;;5050058;28;20252;-75
2022/03/09 03:08:35;;;;;;;19.00;11.50;;;4.00;99.90;;;;;;5073278;28;20214;-75
2022/03/09 03:11:00;;;;;;;21.27;11.87;;;4.00;99.90;;;;;;5056168;28;20207;-74
2022/03/09 03:13:27;;;;;;;19.70;12.23;;;4.00;99.90;;;;;;5074058;28;20204;-75
2022/03/09 03:15:53;;;;;;;19.23;11.13;;;3.90;99.90;;;;;;5056220;28;20232;-78
2022/03/09 03:18:18;;;;;;;19.77;11.50;;;3.90;99.90;;;;;;5055439;28;20211;-75
2022/03/09 03:20:43;;;;;;;21.23;12.27;;;3.90;99.90;;;;;;5073595;28;20293;-75
2022/03/09 03:23:09;;;;;;;19.93;11.63;;;3.90;99.90;;;;;;5056718;28;20542;-75
2022/03/09 03:25:34;;;;;;;19.90;11.20;;;4.00;99.90;;;;;;5073639;28;20310;-76
2022/03/09 03:28:00;;;;;;;17.03;11.60;;;3.90;99.90;;;;;;5073538;28;20201;-76
2022/03/09 03:30:25;;;;;;;21.37;12.60;;;3.90;99.90;;;;;;5056049;28;20212;-76
2022/03/09 03:32:51;;;;;;;21.83;12.07;;;3.80;99.90;;;;;;5054675;28;20682;-75
2022/03/09 03:35:16;;;;;;;20.03;11.10;;;3.80;99.90;;;;;;5051362;28;20188;-76
2022/03/09 03:37:42;;;;;;;19.10;11.10;;;3.80;99.90;;;;;;5073557;28;20254;-75
2022/03/09 03:40:08;;;;;;;20.40;11.60;;;3.80;99.90;;;;;;5073038;28;20222;-74
2022/03/09 03:42:34;;;;;;;20.47;11.33;;;3.80;99.90;;;;;;5055281;28;20353;-74
2022/03/09 03:44:59;;;;;;;19.20;11.33;;;3.80;99.90;;;;;;5055360;28;20350;-75
2022/03/09 03:47:25;;;;;;;20.37;12.00;;;3.70;99.90;;;;;;5061893;28;20233;-75
2022/03/09 03:49:50;;;;;;;16.47;10.83;;;3.70;99.90;;;;;;5054791;28;20186;-74
2022/03/09 03:52:16;;;;;;;17.67;10.73;;;3.70;99.90;;;;;;5055072;28;20210;-76
2022/03/09 03:54:42;;;;;;;19.40;11.43;;;3.70;99.90;;;;;;5055087;28;20257;-76
2022/03/09 03:57:07;;;;;;;20.67;11.37;;;3.70;99.90;;;;;;5055524;28;20634;-76
2022/03/09 03:59:33;;;;;;;16.10;10.97;;;3.60;99.90;;;;;;5072642;28;20208;-77
2022/03/09 04:01:59;;;;;;;21.67;10.97;;;3.60;99.90;;;;;;5055717;28;20202;-76
2022/03/09 04:04:24;;;;;;;23.30;10.77;;;3.60;99.90;;;;;;5073206;28;20589;-76
2022/03/09 04:06:50;;;;;;;21.17;11.93;;;3.60;99.90;;;;;;5073039;28;20206;-74
2022/03/09 04:09:16;;;;;;;20.43;10.23;;;3.50;99.90;;;;;;5053988;28;20228;-75
2022/03/09 04:11:41;;;;;;;18.30;10.50;;;3.60;99.90;;;;;;5072447;28;20207;-74
2022/03/09 04:14:07;;;;;;;16.07;10.70;;;3.50;99.90;;;;;;5073197;28;20290;-75
2022/03/09 04:16:32;;;;;;;18.30;10.77;;;3.50;99.90;;;;;;5051684;28;20214;-74
2022/03/09 04:18:58;;;;;;;16.00;9.50;;;3.50;99.90;;;;;;5054041;28;20619;-74
2022/03/09 04:21:24;;;;;;;18.70;10.73;;;3.50;99.90;;;;;;5054422;28;20211;-74
2022/03/09 04:23:49;;;;;;;18.47;10.70;;;3.50;99.90;;;;;;5074330;28;20210;-76
2022/03/09 04:26:15;;;;;;;19.97;11.53;;;3.40;99.90;;;;;;5072776;28;20208;-75
2022/03/09 04:28:40;;;;;;;21.97;10.47;;;3.40;99.90;;;;;;5072205;28;20191;-74
2022/03/09 04:31:06;;;;;;;21.50;10.50;;;3.40;99.90;;;;;;5072880;28;20199;-76
2022/03/09 04:33:31;;;;;;;14.93;10.47;;;3.40;99.90;;;;;;5072805;28;20675;-78
2022/03/09 04:35:56;;;;;;;19.23;10.57;;;3.40;99.90;;;;;;5054811;28;20214;-76
2022/03/09 04:38:22;;;;;;;19.03;10.47;;;3.40;99.90;;;;;;5053845;28;20264;-76
2022/03/09 04:40:47;;;;;;;16.43;10.23;;;3.40;99.90;;;;;;5054835;28;20327;-74
2022/03/09 04:43:13;;;;;;;19.23;10.67;;;3.30;99.90;;;;;;5072197;28;20214;-73
2022/03/09 04:45:38;;;;;;;19.63;10.83;;;3.30;99.90;;;;;;5049836;28;20208;-75
2022/03/09 04:48:04;;;;;;;17.57;10.00;;;3.30;99.90;;;;;;5071274;28;20213;-74
2022/03/09 04:50:29;;;;;;;17.77;10.97;;;3.30;99.90;;;;;;5071547;28;20201;-74
2022/03/09 04:52:55;;;;;;;17.40;9.50;;;3.30;99.90;;;;;;5054406;28;20635;-75
2022/03/09 04:55:20;;;;;;;17.53;10.37;;;3.30;99.90;;;;;;5071692;28;20231;-75
2022/03/09 04:57:46;;;;;;;15.13;9.77;;;3.30;99.90;;;;;;5053415;28;20220;-74
2022/03/09 05:00:12;;;;;;;21.20;10.37;;;3.30;99.90;;;;;;5071132;28;20268;-74
2022/03/09 05:02:37;;;;;;;16.67;9.50;;;3.30;99.90;;;;;;5055430;28;20211;-76
2022/03/09 05:05:03;;;;;;;15.10;9.17;;;3.20;99.90;;;;;;5074538;28;20204;-75
2022/03/09 05:07:29;;;;;;;19.47;9.97;;;3.20;99.90;;;;;;5054044;28;20216;-74
2022/03/09 05:09:54;;;;;;;16.73;8.77;;;3.20;99.90;;;;;;5070756;28;20710;-76
2022/03/09 05:12:20;;;;;;;19.13;10.13;;;3.20;99.90;;;;;;5053389;28;20250;-75
2022/03/09 05:14:46;;;;;;;15.80;10.07;;;3.10;99.90;;;;;;5071377;28;20224;-76
2022/03/09 05:17:11;;;;;;;16.63;9.80;;;3.10;99.90;;;;;;5068897;28;20261;-75
2022/03/09 05:19:37;;;;;;;16.27;9.93;;;3.20;99.90;;;;;;5070219;28;20216;-76
2022/03/09 05:22:03;;;;;;;18.63;9.90;;;3.20;99.90;;;;;;5053235;28;20213;-75
2022/03/09 05:24:29;;;;;;;17.40;9.27;;;3.20;99.90;;;;;;5070965;28;20205;-75
2022/03/09 05:26:54;;;;;;;17.33;9.33;;;3.20;99.90;;;;;;5071173;28;20621;-75
2022/03/09 05:29:20;;;;;;;17.23;10.10;;;3.20;99.90;;;;;;5070408;28;20567;-75
2022/03/09 05:31:45;;;;;;;22.93;9.90;;;3.20;99.90;;;;;;5071291;28;20553;-76
2022/03/09 05:34:13;;;;;;;21.33;10.40;;;3.20;99.90;;;;;;5053081;28;20209;-75
2022/03/09 05:36:39;;;;;;;21.47;9.97;;;3.20;99.90;;;;;;5070760;28;20640;-76
2022/03/09 05:39:05;;;;;;;16.93;9.47;;;3.20;99.90;;;;;;5069981;28;20251;-76
2022/03/09 05:41:31;;;;;;;18.30;9.97;;;3.20;99.90;;;;;;5089082;22;20230;-76
2022/03/09 05:43:57;;;;;;;21.37;10.37;;;3.20;99.90;;;;;;5089119;28;20183;-74
2022/03/09 05:46:23;;;;;;;20.20;10.03;;;3.20;99.90;;;;;;5087082;28;20289;-75
2022/03/09 05:48:48;;;;;;;22.53;10.40;;;3.30;99.90;;;;;;5072667;28;20201;-74
2022/03/09 05:51:13;;;;;;;16.23;10.00;;;3.30;99.90;;;;;;5091306;28;20208;-75
2022/03/09 05:53:39;;;;;;;23.10;10.17;;;3.40;99.90;;;;;;5054069;28;20570;-75
2022/03/09 05:56:05;;;;;;;15.27;9.47;;;3.50;99.90;;;;;;5077831;28;20196;-74
2022/03/09 05:58:31;;;;;;;17.40;10.03;;;3.50;99.90;;;;;;5072069;28;20241;-74
2022/03/09 06:00:56;;;;;;;17.53;10.90;;;3.50;99.90;;;;;;5070328;28;20222;-76
2022/03/09 06:03:22;;;;;;;18.53;10.30;;;3.50;99.90;;;;;;5069877;28;20218;-75
2022/03/09 06:05:47;;;;;;;19.23;10.60;;;3.60;99.90;;;;;;5052511;28;20622;-74
2022/03/09 06:08:13;;;;;;;15.93;9.80;;;3.70;99.90;;;;;;5052686;28;20178;-75
2022/03/09 06:10:38;;;;;;;18.93;10.57;;;3.70;99.90;;;;;;5079170;28;20203;-75
2022/03/09 06:13:04;;;;;;;30.60;10.77;;;3.80;99.90;;;;;;5070933;28;20237;-75
2022/03/09 06:15:29;;;;;;;15.73;10.10;;;3.80;99.90;;;;;;5070608;28;20211;-75
2022/03/09 06:17:55;;;;;;;19.13;9.97;;;6.10;99.90;;;;;;5051589;28;20203;-75
2022/03/09 06:20:23;;;;;;;17.47;8.73;;;8.20;99.90;;;;;;5052200;28;20217;-74
2022/03/09 06:22:48;;;;;;;16.83;8.87;;;9.90;99.90;;;;;;5045609;28;20197;-74
2022/03/09 06:25:14;;;;;;;21.43;9.50;;;11.30;99.90;;;;;;5070675;28;20203;-74
2022/03/09 06:27:45;;;;;;;16.33;9.27;;;12.20;99.90;;;;;;5070289;28;20559;-74
2022/03/09 06:30:11;;;;;;;19.13;10.07;;;13.10;99.90;;;;;;5070397;28;20202;-74
2022/03/09 06:32:37;;;;;;;16.47;9.43;;;13.70;99.90;;;;;;5052808;28;20218;-74
2022/03/09 06:35:05;;;;;;;15.40;9.40;;;14.40;99.90;;;;;;5071041;28;20171;-74
2022/03/09 06:37:31;;;;;;;17.17;9.75;;;15.20;99.90;;;;;;5071946;28;20211;-74
2022/03/09 06:39:57;;;;;;;17.55;10.07;;;15.90;99.90;;;;;;5076666;28;20206;-74
2022/03/09 06:42:24;;;;;;;15.18;9.57;;;16.20;99.90;;;;;;5078573;28;20302;-75
2022/03/09 06:44:50;;;;;;;18.73;10.07;;;16.60;99.90;;;;;;5052673;28;20268;-75
2022/03/09 06:47:15;;;;;;;16.67;13.00;;;16.90;99.90;;;;;;5070510;28;20167;-76
2022/03/09 06:49:41;;;;;;;20.58;11.20;;;17.80;99.90;;;;;;5070252;28;20308;-76
2022/03/09 06:52:07;;;;;;;22.85;11.85;;;17.80;99.90;;;;;;5070458;28;20225;-75
2022/03/09 06:54:32;;;;;;;13.13;10.43;;;17.70;99.90;;;;;;5052534;28;20214;-75
2022/03/09 06:56:58;;;;;;;16.33;10.68;;;17.80;99.90;;;;;;5052487;28;20203;-75
2022/03/09 06:59:23;;;;;;;17.17;10.60;;;18.20;99.50;;;;;;5051544;28;20252;-76
2022/03/09 07:01:48;;;;;;;16.77;11.82;;;18.30;97.90;;;;;;5053085;28;20574;-75
2022/03/09 07:04:14;;;;;;;19.63;10.95;;;19.10;96.00;;;;;;5070507;28;20219;-76
2022/03/09 07:06:39;;;;;;;15.25;10.68;;;18.90;95.20;;;;;;5078307;28;20769;-77
2022/03/09 07:09:05;;;;;;;17.35;11.75;;;18.70;94.60;;;;;;5069743;28;20209;-75
2022/03/09 07:11:31;;;;;;;15.18;10.93;;;18.70;94.30;;;;;;5060382;28;20202;-76
2022/03/09 07:13:57;;;;;;;12.32;9.60;;;18.50;93.90;;;;;;5058115;28;20178;-75
2022/03/09 07:16:22;;;;;;;14.50;10.75;;;18.70;93.20;;;;;;5073302;28;20581;-75
2022/03/09 07:18:48;;;;;;;15.70;10.55;;;18.50;92.90;;;;;;5068674;28;20203;-75
2022/03/09 07:21:13;;;;;;;16.65;10.38;;;19.60;91.70;;;;;;5070515;28;20206;-75
2022/03/09 07:23:39;;;;;;;16.63;11.10;;;18.70;91.20;;;;;;5071037;28;20203;-75
2022/03/09 07:26:05;;;;;;;17.23;11.50;;;18.40;91.10;;;;;;5071392;28;20631;-74
2022/03/09 07:28:31;;;;;;;15.23;11.60;;;18.40;91.50;;;;;;5069402;28;20218;-75
2022/03/09 07:30:57;;;;;;;13.05;10.57;;;18.30;91.60;;;;;;5073557;28;20199;-75
2022/03/09 07:33:22;;;;;;;16.60;10.77;;;18.70;91.30;;;;;;5056179;28;20214;-75
2022/03/09 07:35:48;;;;;;;17.15;10.90;;;18.90;90.60;;;;;;5073634;28;20203;-75
2022/03/09 07:38:14;;;;;;;13.73;10.38;;;18.50;90.40;;;;;;5055744;28;20171;-76
2022/03/09 07:40:40;;;;;;;15.65;10.70;;;18.10;90.60;;;;;;5073659;28;20218;-76
2022/03/09 07:43:06;;;;;;;14.73;9.57;;;17.80;91.00;;;;;;5073711;28;20211;-75
2022/03/09 07:45:32;;;;;;;12.05;7.70;;;17.80;90.90;;;;;;5073568;28;20290;-75
2022/03/09 07:47:57;;;;;;;11.13;7.07;;;18.40;90.40;;;;;;5055084;28;20211;-75
2022/03/09 07:50:23;;;;;;;9.57;7.07;;;18.70;88.60;;;;;;5055313;28;20214;-74
2022/03/09 07:52:48;;;;;;;9.65;7.70;;;18.80;87.90;;;;;;5074131;28;20187;-75
2022/03/09 07:55:14;;;;;;;10.93;7.82;;;17.90;89.10;;;;;;5073648;28;20203;-75
2022/03/09 07:57:40;;;;;;;15.40;7.85;;;18.00;89.50;;;;;;5072941;28;20585;-74
2022/03/09 08:00:07;;;;;;;9.15;6.82;;;18.20;90.00;;;;;;5073032;28;20207;-75
2022/03/09 08:02:33;;;;;;;11.15;8.07;;;18.40;88.90;;;;;;5073396;28;20267;-75
2022/03/09 08:04:58;;;;;;;9.40;7.03;;;18.80;88.30;;;;;;5067751;28;20651;-76
2022/03/09 08:07:23;;;;;;;12.25;7.28;;;19.00;87.10;;;;;;5073084;28;20259;-75
2022/03/09 08:09:49;;;;;;;10.80;7.50;;;19.10;86.50;;;;;;5070824;28;20207;-75
2022/03/09 08:12:14;;;;;;;11.60;7.35;;;19.10;85.50;;;;;;5073185;28;20226;-75
2022/03/09 08:14:40;;;;;;;12.38;6.88;;;19.40;84.70;;;;;;5072878;28;20227;-75
2022/03/09 08:17:06;;;;;;;7.32;6.38;;;19.20;85.00;;;;;;5073570;28;20642;-76
2022/03/09 08:19:31;;;;;;;9.15;6.70;;;19.30;85.30;;;;;;5054328;28;20214;-75
2022/03/09 08:21:57;;;;;;;14.18;6.63;;;19.30;85.00;;;;;;5073055;28;20207;-75
2022/03/09 08:24:23;;;;;;;10.65;6.65;;;19.50;84.40;;;;;;5073275;28;20206;-75
2022/03/09 08:26:49;;;;;;;10.98;6.82;;;19.50;83.50;;;;;;5080876;28;20203;-75
2022/03/09 08:29:15;;;;;;;10.75;6.63;;;19.50;83.80;;;;;;5072198;28;20648;-75
2022/03/09 08:31:40;;;;;;;13.30;6.82;;;19.30;83.40;;;;;;5060493;28;20195;-75
2022/03/09 08:34:06;;;;;;;8.07;6.20;;;19.20;83.40;;;;;;5073057;28;20633;-76
2022/03/09 08:36:31;;;;;;;8.93;6.35;;;19.00;83.30;;;;;;5072691;28;20229;-75
2022/03/09 08:38:57;;;;;;;12.23;6.97;;;19.10;84.00;;;;;;5072063;28;20203;-75
2022/03/09 08:41:26;;;;;;;14.18;7.03;;;18.40;83.90;;;;;;5071218;28;20282;-74
2022/03/09 08:43:51;;;;;;;14.45;7.05;;;17.90;85.40;;;;;;5073207;28;20592;-75
2022/03/09 08:46:17;;;;;;;12.80;6.82;;;17.70;86.00;;;;;;5072631;28;20203;-76
2022/03/09 08:48:43;;;;;;;9.75;7.30;;;17.90;86.10;;;;;;5071418;28;20857;-74
2022/03/09 08:51:09;;;;;;;11.65;6.85;;;18.00;86.40;;;;;;5072301;28;20238;-75
2022/03/09 08:53:34;;;;;;;11.73;7.53;;;17.90;86.00;;;;;;5072368;28;20663;-75
2022/03/09 08:56:00;;;;;;;11.93;6.88;;;18.20;86.60;;;;;;5072874;28;20186;-75
2022/03/09 08:58:25;;;;;;;9.93;5.90;;;18.20;85.90;;;;;;5054080;28;20211;-75
2022/03/09 09:00:51;;;;;;;9.45;6.18;;;18.30;86.20;;;;;;5079730;28;20199;-75
2022/03/09 09:03:16;;;;;;;7.63;6.10;;;17.40;86.80;;;;;;5072580;28;20225;-75
2022/03/09 09:05:42;;;;;;;9.43;6.20;;;17.00;87.40;;;;;;5072223;28;20570;-75
2022/03/09 09:08:07;;;;;;;8.93;6.00;;;17.00;88.40;;;;;;5071961;28;20217;-76
2022/03/09 09:10:35;;;;;;;11.18;6.65;;;16.90;88.60;;;;;;5072117;28;20235;-75
2022/03/09 09:13:00;;;;;;;8.38;6.20;;;16.60;89.70;;;;;;5072161;28;20206;-75
2022/03/09 09:15:28;;;;;;;11.18;6.75;;;16.40;90.30;;;;;;5071787;28;20207;-73
2022/03/09 09:18:02;;;;;;;8.40;5.65;;;16.20;90.40;;;;;;5071560;28;20207;-76
2022/03/09 09:20:29;;;;;;;11.95;7.15;;;16.20;90.80;;;;;;5080210;28;20205;-76
2022/03/09 09:22:55;;;;;;;13.48;6.95;;;15.80;90.80;;;;;;5072292;28;20202;-74
2022/03/09 09:25:23;;;;;;;10.20;6.53;;;15.80;91.40;;;;;;5071638;28;20207;-75
2022/03/09 09:27:50;;;;;;;10.25;6.20;;;16.00;91.20;;;;;;5071130;28;20203;-74
2022/03/09 09:30:16;;;;;;;9.73;6.20;;;15.60;91.70;;;;;;5053324;28;20198;-74
2022/03/09 09:32:41;;;;;;;12.68;6.03;;;16.10;91.60;;;;;;5071830;28;20207;-75
2022/03/09 09:35:07;;;;;;;8.57;5.38;;;16.60;91.00;;;;;;5072223;28;20178;-74
2022/03/09 09:37:33;;;;;;;10.18;5.18;;;16.60;90.50;;;;;;5071577;28;20211;-75
2022/03/09 09:39:58;;;;;;;11.85;6.78;;;16.50;90.30;;;;;;5053082;28;20206;-75
2022/03/09 09:42:31;;;;;;;10.95;5.28;;;16.10;90.50;;;;;;5079741;28;20229;-75
2022/03/09 09:45:00;;;;;;;9.93;5.60;;;16.20;90.90;;;;;;5061681;28;20210;-75
2022/03/09 09:47:27;;;;;;;8.75;5.63;;;16.30;90.80;;;;;;5071490;28;20631;-75
2022/03/09 09:49:55;;;;;;;12.63;5.38;;;16.40;90.90;;;;;;5073747;28;20253;-75
2022/03/09 09:52:24;;;;;;;8.32;4.90;;;16.40;90.50;;;;;;5053309;28;20678;-74
2022/03/09 09:54:52;;;;;;;8.30;5.55;;;15.90;90.50;;;;;;5071226;28;20214;-75
2022/03/09 09:57:17;;;;;;;7.40;5.03;;;15.70;91.20;;;;;;5053296;28;20876;-74
2022/03/09 09:59:44;;;;;;;12.02;5.35;;;16.00;91.10;;;;;;5070198;28;20219;-75
2022/03/09 10:02:10;;;;;;;8.30;4.80;;;15.90;90.60;;;;;;5072085;28;20203;-75
2022/03/09 10:04:37;;;;;;;7.10;4.38;;;15.70;90.80;;;;;;5071110;28;20221;-76
2022/03/09 10:07:03;;;;;;;7.57;4.33;;;15.80;90.70;;;;;;5071049;28;20264;-74
2022/03/09 10:09:42;;;;;;;8.57;5.28;;;15.80;91.20;;;;;;5070307;28;20246;-77
2022/03/09 10:12:09;;;;;;;9.10;5.05;;;15.80;90.90;;;;;;5081072;28;20636;-75
2022/03/09 10:14:52;;;;;;;6.03;4.07;;;16.00;90.40;;;;;;5084440;28;20241;-76
2022/03/09 10:17:22;;;;;;;5.50;3.50;;;15.70;90.50;;;;;;5073941;28;20211;-75
2022/03/09 10:19:50;;;;;;;7.40;4.20;;;15.80;90.00;;;;;;5082191;28;20286;-76
2022/03/09 10:22:32;;;;;;;7.57;4.75;;;16.00;89.50;;;;;;5091015;28;20274;-77
2022/03/09 10:25:00;;;;;;;10.02;4.93;;;15.80;89.70;;;;;;5084044;28;20270;-75
2022/03/09 10:27:34;;;;;;;8.07;5.28;;;15.70;89.80;;;;;;5099294;28;20211;-77
2022/03/09 10:30:00;;;;;;;10.37;5.23;;;16.10;90.30;;;;;;5089364;28;20226;-77
2022/03/09 10:32:49;;;;;;;10.07;5.80;;;15.90;89.50;;;;;;5074405;28;20190;-75
2022/03/09 10:35:17;;;;;;;11.60;6.27;;;15.80;90.20;;;;;;5099813;28;20197;-75
2022/03/09 10:37:45;;;;;;;13.53;6.37;;;15.30;90.30;;;;;;5087670;28;20172;-77
2022/03/09 10:40:13;;;;;;;9.70;5.97;;;14.90;90.70;;;;;;5071329;28;20274;-76
2022/03/09 10:42:39;;;;;;;12.73;7.00;;;15.00;91.00;;;;;;5088299;28;20218;-75
2022/03/09 10:45:07;;;;;;;11.57;6.50;;;14.90;91.10;;;;;;5087718;28;20242;-75
2022/03/09 10:47:40;;;;;;;13.20;8.00;;;14.70;91.40;;;;;;5070077;28;20293;-76
2022/03/09 10:50:17;;;;;;;13.57;7.43;;;14.60;90.80;;;;;;5052664;28;20179;-75
2022/03/09 10:52:44;;;;;;;10.47;6.23;;;14.40;91.10;;;;;;5070413;28;20229;-76
2022/03/09 10:55:19;;;;;;;10.77;6.20;;;14.30;91.10;;;;;;5072278;28;20207;-76
2022/03/09 10:57:45;;;;;;;13.13;6.50;;;14.00;91.60;;;;;;5077061;28;20202;-76
2022/03/09 11:00:11;;;;;;;13.83;7.00;;;14.30;92.10;;;;;;5069530;28;20215;-76
2022/03/09 11:02:51;;;;;;;16.77;7.50;;;14.30;92.20;;;;;;5070032;28;20558;-77
2022/03/09 11:05:21;;;;;;;11.37;6.40;;;14.30;92.30;;;;;;5072094;28;20257;-78
2022/03/09 11:07:48;;;;;;;15.47;8.30;;;14.50;92.00;;;;;;5056262;28;20167;-79
2022/03/09 11:10:14;;;;;;;14.90;8.47;;;14.40;91.80;;;;;;5054276;28;20214;-76
2022/03/09 11:12:40;;;;;;;44.40;20.20;;;14.60;92.00;;;;;;5058156;28;20214;-77
2022/03/09 11:15:07;;;;;;;17.63;8.87;;;14.80;92.50;;;;;;5079221;28;20630;-76
2022/03/09 11:17:34;;;;;;;14.07;8.20;;;15.10;93.10;;;;;;5064543;28;20179;-76
2022/03/09 11:19:59;;;;;;;14.27;7.77;;;14.90;91.70;;;;;;5056254;28;20597;-76
2022/03/09 11:22:25;;;;;;;20.97;7.63;;;15.10;91.70;;;;;;5077549;28;20207;-77
2022/03/09 11:24:52;;;;;;;11.30;7.03;;;15.10;93.50;;;;;;5074860;28;20199;-77
2022/03/09 11:27:18;;;;;;;12.77;6.93;;;15.30;92.80;;;;;;5056764;28;20568;-78
2022/03/09 11:29:44;;;;;;;12.03;6.53;;;15.30;94.00;;;;;;5073262;28;20628;-77
2022/03/09 11:32:11;;;;;;;12.40;6.97;;;15.40;93.10;;;;;;5079001;28;20198;-77
2022/03/09 11:34:44;;;;;;;13.30;6.80;;;15.30;92.40;;;;;;5080327;28;20585;-76
2022/03/09 11:37:34;;;;;;;11.30;6.75;;;15.00;91.10;;;;;;5082284;28;20203;-76
2022/03/09 11:40:05;;;;;;;12.23;6.00;;;14.90;93.20;;;;;;5069074;28;20206;-76
2022/03/09 11:42:34;;;;;;;9.87;6.37;;;15.00;91.60;;;;;;5079544;28;20287;-77
2022/03/09 11:45:14;;;;;;;12.83;7.00;;;15.00;92.00;;;;;;5090184;22;20228;-76
2022/03/09 11:48:02;;;;;;;11.80;6.07;;;15.10;92.40;;;;;;5032844;28;20212;-75
2022/03/09 11:50:30;;;;;;;9.80;5.72;;;15.00;92.10;;;;;;5032391;28;20203;-76
2022/03/09 11:53:07;;;;;;;10.50;6.33;;;15.10;94.80;;;;;;5034297;28;20172;-75
2022/03/09 11:55:34;;;;;;;12.60;6.07;;;15.00;93.20;;;;;;5043584;28;20576;-76
2022/03/09 11:58:03;;;;;;;11.00;5.82;;;14.90;93.20;;;;;;5057915;28;20263;-74
2022/03/09 12:00:29;;;;;;;11.13;5.97;;;14.90;92.00;;;;;;5078081;28;20246;-77
2022/03/09 12:02:56;;;;;;;8.80;5.10;;;15.00;92.70;;;;;;5076198;28;20237;-75
2022/03/09 12:05:24;;;;;;;10.13;5.25;;;14.90;92.30;;;;;;5054104;28;20206;-75
2022/03/09 12:07:59;;;;;;;8.93;5.18;;;14.90;91.80;;;;;;5039293;28;20192;-75
2022/03/09 12:10:43;;;;;;;9.70;5.63;;;15.00;91.00;;;;;;5052440;28;20203;-76
2022/03/09 12:13:17;;;;;;;9.38;5.40;;;14.80;90.70;;;;;;5055315;28;20286;-75
2022/03/09 12:16:04;;;;;;;10.63;5.70;;;14.30;90.40;;;;;;5072571;28;20683;-75
2022/03/09 12:18:38;;;;;;;17.35;8.60;;;14.00;91.20;;;;;;5072391;28;20206;-76
2022/03/09 12:21:04;;;;;;;9.47;5.63;;;14.30;97.00;;;;;;5073313;28;20854;-76
2022/03/09 12:23:30;;;;;;;18.57;7.87;;;14.20;92.70;;;;;;5046557;28;20183;-77
2022/03/09 12:25:58;;;;;;;12.47;5.50;;;14.10;98.70;;;;;;5073228;28;20206;-76
2022/03/09 12:28:29;;;;;;;7.13;4.70;;;14.20;96.60;;;;;;5044142;28;20209;-73
2022/03/09 12:30:59;;;;;;;20.03;9.97;;;14.00;91.50;;;;;;5051065;28;20242;-76
2022/03/09 12:33:28;;;;;;;11.37;6.57;;;14.30;99.90;;;;;;5053830;28;20207;-76
2022/03/09 12:36:12;;;;;;;10.03;5.83;;;14.60;95.00;;;;;;5049233;28;20298;-74
2022/03/09 12:38:55;;;;;;;12.70;6.90;;;14.30;95.70;;;;;;5070671;28;20215;-76